Portada
METAR-TAF:

METAR-TAF

Aeroports :

Baia Mare, Romania

latitud: 47-40N, longitud: 023-35E, altitud: 218 m

Observació

L'informe es va fer fa 10 minuts, a les 16:00 UTC
Vent 6 kt del Nord/Nord-Est, variant entre Nord i Est/Nord-Est
Temperatura 30°C
Humitat 35%
Pressió 1015 hPa
Visibilitat 10 km o més
sense núvols per sota de 1500 mi sense presència de cumulonimbus.

METAR: LRBM 181600Z 03006KT 350V060 CAVOK 30/13 Q1015

Hora: 19:10 (16:10 UTC)

Pronòstic

L'informe es va fer fa 2 hores i 10 minuts, a les 14:00 UTC
Pronòstic vàlid del 18 a les 15 UTC al 19 a les 00 UTC
Vent 4 kt amb direcció variable
Visibilitat 10 km o més
Núvols disperses a una alçada de 4500 ft

TAF: LRBM 181400Z 1815/1900 VRB04KT 9999 SCT045

Observacions i pronòstics meteorològics de més de 4000 aeroports (METAR i TAF).

Les estacions disponibles són els punts grocs i vermells al mapa.

Posi el ratolí al punt desitjat per veure el nom de l'estació.

Feu clic per veure les observacions i els pronòstics meteorològics.

Per canviar el mapa: feu clic els botons verds amb una creu de color negre per apropar; al botó verd amb un guió per allunyar la imatge; o en les fletxes verdes per a mapes adjacents.


METAR-TAF: